createdAt,value
2019-06-01T00:01:05.427Z,99.90
2019-06-01T00:03:36.659Z,99.90
2019-06-01T00:06:07.501Z,99.90
2019-06-01T00:08:40.177Z,99.90
2019-06-01T00:11:11.019Z,99.90
2019-06-01T00:13:41.804Z,99.90
2019-06-01T00:16:12.380Z,99.90
2019-06-01T00:18:43.971Z,99.90
2019-06-01T00:21:14.642Z,99.90
2019-06-01T00:23:46.543Z,99.90
2019-06-01T00:26:17.129Z,99.90
2019-06-01T00:28:47.939Z,99.90
2019-06-01T00:31:19.006Z,99.90
2019-06-01T00:33:49.649Z,99.90
2019-06-01T00:36:20.586Z,99.90
2019-06-01T00:38:52.042Z,99.90
2019-06-01T00:41:23.148Z,99.90
2019-06-01T00:43:54.193Z,99.90
2019-06-01T00:46:24.792Z,99.90
2019-06-01T00:48:55.373Z,99.90
2019-06-01T00:51:25.923Z,99.90
2019-06-01T00:53:56.860Z,99.90
2019-06-01T00:56:27.801Z,99.90
2019-06-01T00:58:58.714Z,99.90
2019-06-01T01:01:29.602Z,99.90
2019-06-01T01:04:00.176Z,99.90
2019-06-01T01:06:31.427Z,99.90
2019-06-01T01:09:02.108Z,99.90
2019-06-01T01:11:33.094Z,99.90
2019-06-01T01:14:03.947Z,99.90
2019-06-01T01:16:35.034Z,99.90
2019-06-01T01:19:05.820Z,99.90
2019-06-01T01:21:36.490Z,99.90
2019-06-01T01:24:07.162Z,99.90
2019-06-01T01:26:37.762Z,99.90
2019-06-01T01:29:08.745Z,99.90
2019-06-01T01:31:39.311Z,99.90
2019-06-01T01:34:09.993Z,99.90
2019-06-01T01:36:40.603Z,99.90
2019-06-01T01:39:11.459Z,99.90
2019-06-01T01:41:42.046Z,99.90
2019-06-01T01:44:12.700Z,99.90
2019-06-01T01:46:43.921Z,99.90
2019-06-01T01:49:14.493Z,99.90
2019-06-01T01:51:45.067Z,99.90
2019-06-01T01:54:16.435Z,99.90
2019-06-01T01:56:46.983Z,99.90
2019-06-01T01:59:17.962Z,99.90
2019-06-01T02:01:50.345Z,99.90
2019-06-01T02:04:21.155Z,99.90
2019-06-01T02:06:51.902Z,99.90
2019-06-01T02:09:22.489Z,99.90
2019-06-01T02:11:53.880Z,99.90
2019-06-01T02:14:24.467Z,99.90
2019-06-01T02:16:56.258Z,99.90
2019-06-01T02:19:27.310Z,99.90
2019-06-01T02:21:58.541Z,99.90
2019-06-01T02:24:29.497Z,99.90
2019-06-01T02:27:01.297Z,99.90
2019-06-01T02:29:32.051Z,99.90
2019-06-01T02:32:04.715Z,99.90
2019-06-01T02:34:35.296Z,99.90
2019-06-01T02:37:07.095Z,99.90
2019-06-01T02:39:38.099Z,99.90
2019-06-01T02:42:10.146Z,99.90
2019-06-01T02:44:40.736Z,99.90
2019-06-01T02:47:11.608Z,99.90
2019-06-01T02:49:42.204Z,99.90
2019-06-01T02:52:13.094Z,99.90
2019-06-01T02:54:43.690Z,99.90
2019-06-01T02:57:14.262Z,99.90
2019-06-01T02:59:44.919Z,99.90
2019-06-01T03:02:15.705Z,99.90
2019-06-01T03:04:46.597Z,99.90
2019-06-01T03:07:18.917Z,99.90
2019-06-01T03:09:50.394Z,99.90
2019-06-01T03:12:23.313Z,99.90
2019-06-01T03:14:55.033Z,99.90
2019-06-01T03:17:27.881Z,99.90
2019-06-01T03:20:01.957Z,99.90
2019-06-01T03:22:35.155Z,99.90
2019-06-01T03:25:07.991Z,99.90
2019-06-01T03:27:41.785Z,99.90
2019-06-01T03:30:15.752Z,99.90
2019-06-01T03:32:46.758Z,99.90
2019-06-01T03:35:17.691Z,99.90
2019-06-01T03:37:48.252Z,99.90
2019-06-01T03:40:23.838Z,99.90
2019-06-01T03:42:51.749Z,99.90
2019-06-01T03:45:22.766Z,99.90
2019-06-01T03:47:53.364Z,99.90
2019-06-01T03:50:24.046Z,99.90
2019-06-01T03:52:54.960Z,99.90
2019-06-01T03:55:25.530Z,99.90
2019-06-01T03:57:56.897Z,99.90
2019-06-01T04:00:27.474Z,99.90
2019-06-01T04:02:58.072Z,99.90
2019-06-01T04:05:29.521Z,99.90
2019-06-01T04:08:01.269Z,99.90
2019-06-01T04:10:31.906Z,99.90
2019-06-01T04:13:03.503Z,99.90
2019-06-01T04:15:34.333Z,99.90
2019-06-01T04:18:06.039Z,99.90
2019-06-01T04:20:37.035Z,99.90
2019-06-01T04:23:08.103Z,99.90
2019-06-01T04:25:38.711Z,99.90
2019-06-01T04:28:12.768Z,99.90
2019-06-01T04:30:43.356Z,99.90
2019-06-01T04:33:13.941Z,99.90
2019-06-01T04:35:44.601Z,99.90
2019-06-01T04:38:15.514Z,99.90
2019-06-01T04:40:46.128Z,99.90
2019-06-01T04:43:16.723Z,99.90
2019-06-01T04:45:47.306Z,99.90
2019-06-01T04:48:18.234Z,99.90
2019-06-01T04:50:49.671Z,99.90
2019-06-01T04:53:20.355Z,99.90
2019-06-01T04:55:51.304Z,99.90
2019-06-01T04:58:22.076Z,99.90
2019-06-01T05:00:52.637Z,99.90
2019-06-01T05:03:23.289Z,99.90
2019-06-01T05:05:53.827Z,99.90
2019-06-01T05:08:24.422Z,99.90
2019-06-01T05:10:55.296Z,99.90
2019-06-01T05:13:26.160Z,99.90
2019-06-01T05:15:57.418Z,99.90
2019-06-01T05:18:28.137Z,99.90
2019-06-01T05:20:58.984Z,99.90
2019-06-01T05:23:29.643Z,99.90
2019-06-01T05:26:00.225Z,99.90
2019-06-01T05:28:31.243Z,99.90
2019-06-01T05:31:02.148Z,99.90
2019-06-01T05:33:37.267Z,99.90
2019-06-01T05:36:04.933Z,99.90
2019-06-01T05:38:35.891Z,99.90
2019-06-01T05:41:06.755Z,99.90
2019-06-01T05:43:37.805Z,99.90
2019-06-01T05:46:08.381Z,99.90
2019-06-01T05:48:39.060Z,99.90
2019-06-01T05:51:12.491Z,99.90
2019-06-01T05:53:42.742Z,99.90
2019-06-01T05:56:14.774Z,99.90
2019-06-01T05:58:46.350Z,99.90
2019-06-01T06:01:16.895Z,99.90
2019-06-01T06:03:48.185Z,99.90
2019-06-01T06:06:19.938Z,99.90
2019-06-01T06:08:50.685Z,99.90
2019-06-01T06:11:21.335Z,99.90
2019-06-01T06:13:52.009Z,99.90
2019-06-01T06:16:22.985Z,99.90
2019-06-01T06:18:53.883Z,99.90
2019-06-01T06:21:25.161Z,99.90
2019-06-01T06:23:55.746Z,99.90
2019-06-01T06:26:26.728Z,99.90
2019-06-01T06:28:57.328Z,99.90
2019-06-01T06:31:27.886Z,99.90
2019-06-01T06:33:59.203Z,99.90
2019-06-01T06:36:30.007Z,99.90
2019-06-01T06:39:00.949Z,99.90
2019-06-01T06:41:31.827Z,99.90
2019-06-01T06:44:02.433Z,99.90
2019-06-01T06:46:33.363Z,99.90
2019-06-01T06:49:04.000Z,99.90
2019-06-01T06:51:34.567Z,99.90
2019-06-01T06:54:05.237Z,99.90
2019-06-01T06:56:35.806Z,99.90
2019-06-01T06:59:06.547Z,99.90
2019-06-01T07:01:37.407Z,99.90
2019-06-01T07:04:12.817Z,99.90
2019-06-01T07:06:40.274Z,99.90
2019-06-01T07:09:10.894Z,99.90
2019-06-01T07:11:41.490Z,99.90
2019-06-01T07:14:12.503Z,99.90
2019-06-01T07:16:43.348Z,99.90
2019-06-01T07:19:14.400Z,99.90
2019-06-01T07:21:44.946Z,99.90
2019-06-01T07:24:15.603Z,99.90
2019-06-01T07:26:46.137Z,99.90
2019-06-01T07:29:16.770Z,99.90
2019-06-01T07:31:47.336Z,99.90
2019-06-01T07:34:31.034Z,99.90
2019-06-01T07:36:50.215Z,99.90
2019-06-01T07:39:20.811Z,99.90
2019-06-01T07:41:51.536Z,99.90
2019-06-01T07:44:22.713Z,99.90
2019-06-01T07:46:53.974Z,99.90
2019-06-01T07:49:25.002Z,99.90
2019-06-01T07:51:55.878Z,99.90
2019-06-01T07:54:26.881Z,99.90
2019-06-01T07:56:57.781Z,99.90
2019-06-01T07:59:28.992Z,99.90
2019-06-01T08:02:00.695Z,99.90
2019-06-01T08:04:50.554Z,99.90
2019-06-01T08:07:04.248Z,99.90
2019-06-01T08:09:35.177Z,99.90
2019-06-01T08:12:06.161Z,99.90
2019-06-01T08:14:37.306Z,99.90
2019-06-01T08:17:07.963Z,99.90
2019-06-01T08:19:38.858Z,99.90
2019-06-01T08:22:09.794Z,99.90
2019-06-01T08:24:40.359Z,99.90
2019-06-01T08:27:11.026Z,99.90
2019-06-01T08:29:41.809Z,99.90
2019-06-01T08:32:12.831Z,99.90
2019-06-01T08:34:43.393Z,99.90
2019-06-01T08:37:14.045Z,99.90
2019-06-01T08:39:44.606Z,99.90
2019-06-01T08:42:16.216Z,99.90
2019-06-01T08:44:46.770Z,99.90
2019-06-01T08:47:17.854Z,99.90
2019-06-01T08:49:48.635Z,99.90
2019-06-01T08:52:19.210Z,99.90
2019-06-01T08:54:50.375Z,99.90
2019-06-01T08:57:21.297Z,99.90
2019-06-01T08:59:51.899Z,99.90
2019-06-01T09:02:24.447Z,99.90
2019-06-01T09:04:55.898Z,99.90
2019-06-01T09:07:26.926Z,99.90
2019-06-01T09:09:57.879Z,99.90
2019-06-01T09:12:29.231Z,99.90
2019-06-01T09:15:00.082Z,99.90
2019-06-01T09:17:31.523Z,99.90
2019-06-01T09:20:02.527Z,99.90
2019-06-01T09:22:33.597Z,99.90
2019-06-01T09:25:04.450Z,99.90
2019-06-01T09:27:36.181Z,99.90
2019-06-01T09:30:08.105Z,99.90
2019-06-01T09:32:38.715Z,99.90
2019-06-01T09:35:09.679Z,99.90
2019-06-01T09:37:40.969Z,99.90
2019-06-01T09:40:11.905Z,99.90
2019-06-01T09:42:42.879Z,99.90
2019-06-01T09:45:13.815Z,99.90
2019-06-01T09:47:45.686Z,99.90
2019-06-01T09:50:16.688Z,99.90
2019-06-01T09:52:47.232Z,99.90
2019-06-01T09:55:18.143Z,99.90
2019-06-01T09:57:48.683Z,99.90
2019-06-01T10:00:20.456Z,99.90
2019-06-01T10:02:51.656Z,99.90
2019-06-01T10:05:22.717Z,99.90
2019-06-01T10:07:53.672Z,99.90
2019-06-01T10:10:24.868Z,99.90
2019-06-01T10:12:56.115Z,99.90
2019-06-01T10:15:26.724Z,99.90
2019-06-01T10:17:58.517Z,99.90
2019-06-01T10:20:30.682Z,99.90
2019-06-01T10:23:01.279Z,99.90
2019-06-01T10:25:32.549Z,99.90
2019-06-01T10:28:03.658Z,99.90
2019-06-01T10:30:34.218Z,99.90
2019-06-01T10:33:05.066Z,99.90
2019-06-01T10:35:36.862Z,99.90
2019-06-01T10:38:08.368Z,99.90
2019-06-01T10:40:39.934Z,99.90
2019-06-01T10:43:11.056Z,99.90
2019-06-01T10:45:41.971Z,99.90
2019-06-01T10:48:13.123Z,99.90
2019-06-01T10:50:43.852Z,99.90
2019-06-01T10:53:15.139Z,99.90
2019-06-01T10:55:46.464Z,99.90
2019-06-01T10:58:17.050Z,99.90
2019-06-01T11:00:51.049Z,99.90
2019-06-01T11:03:19.932Z,99.90
2019-06-01T11:05:51.248Z,99.90
2019-06-01T11:08:22.497Z,99.90
2019-06-01T11:10:53.126Z,99.90
2019-06-01T11:13:23.803Z,99.90
2019-06-01T11:15:54.603Z,99.90
2019-06-01T11:18:25.438Z,99.90
2019-06-01T11:20:56.017Z,99.90
2019-06-01T11:23:27.248Z,99.90
2019-06-01T11:25:57.884Z,99.90
2019-06-01T11:28:28.421Z,99.90
2019-06-01T11:30:59.043Z,99.90
2019-06-01T11:33:29.573Z,99.90
2019-06-01T11:36:00.544Z,99.90
2019-06-01T11:38:31.402Z,99.90
2019-06-01T11:41:02.338Z,99.90
2019-06-01T11:43:32.899Z,99.90
2019-06-01T11:46:03.927Z,99.90
2019-06-01T11:48:35.141Z,99.90
2019-06-01T11:51:06.159Z,99.90
2019-06-01T11:53:37.355Z,99.90
2019-06-01T11:56:08.396Z,99.90
2019-06-01T11:58:39.329Z,99.90
2019-06-01T12:01:09.977Z,99.90
2019-06-01T12:03:41.781Z,99.90
2019-06-01T12:06:12.860Z,99.90
2019-06-01T12:08:44.055Z,99.90
2019-06-01T12:11:14.764Z,99.80
2019-06-01T12:13:46.589Z,99.90
2019-06-01T12:16:17.265Z,99.90
2019-06-01T12:18:47.835Z,99.50
2019-06-01T12:21:18.463Z,99.90
2019-06-01T12:23:49.064Z,99.90
2019-06-01T12:26:20.063Z,99.90
2019-06-01T12:28:50.617Z,99.90
2019-06-01T12:31:21.277Z,99.90
2019-06-01T12:33:51.824Z,99.90
2019-06-01T12:36:23.141Z,99.90
2019-06-01T12:38:54.235Z,99.90
2019-06-01T12:41:25.707Z,99.90
2019-06-01T12:44:15.892Z,99.90
2019-06-01T12:46:47.015Z,99.90
2019-06-01T12:49:17.800Z,99.40
2019-06-01T12:51:49.055Z,99.30
2019-06-01T12:54:20.497Z,98.90
2019-06-01T12:56:51.146Z,99.70
2019-06-01T12:59:21.954Z,99.40
2019-06-01T13:01:52.959Z,99.90
2019-06-01T13:04:23.689Z,99.90
2019-06-01T13:06:54.651Z,99.90
2019-06-01T13:09:25.191Z,99.90
2019-06-01T13:11:56.106Z,99.90
2019-06-01T13:14:26.645Z,99.90
2019-06-01T13:17:06.833Z,99.20
2019-06-01T13:19:29.745Z,99.80
2019-06-01T13:22:00.306Z,99.90
2019-06-01T13:24:30.850Z,99.60
2019-06-01T13:27:02.015Z,98.80
2019-06-01T13:29:32.927Z,99.30
2019-06-01T13:32:04.010Z,99.80
2019-06-01T13:34:34.917Z,99.00
2019-06-01T13:37:06.018Z,99.00
2019-06-01T13:39:36.587Z,99.00
2019-06-01T13:42:07.122Z,98.90
2019-06-01T13:44:38.168Z,98.70
2019-06-01T13:47:08.937Z,99.10
2019-06-01T13:49:39.890Z,98.50
2019-06-01T13:52:10.484Z,99.40
2019-06-01T13:54:41.021Z,98.80
2019-06-01T13:57:11.606Z,98.20
2019-06-01T13:59:42.147Z,97.40
2019-06-01T14:02:13.178Z,96.30
2019-06-01T14:04:45.114Z,95.90
2019-06-01T14:07:16.049Z,97.70
2019-06-01T14:09:47.061Z,96.20
2019-06-01T14:12:17.756Z,96.80
2019-06-01T14:14:49.376Z,96.30
2019-06-01T14:17:20.043Z,96.30
2019-06-01T14:19:51.716Z,96.70
2019-06-01T14:22:22.427Z,96.10
2019-06-01T14:25:08.355Z,95.80
2019-06-01T14:27:25.608Z,95.10
2019-06-01T14:29:56.528Z,96.20
2019-06-01T14:32:27.239Z,95.00
2019-06-01T14:34:57.894Z,95.50
2019-06-01T14:37:28.780Z,96.00
2019-06-01T14:39:59.426Z,98.20
2019-06-01T14:42:30.323Z,95.80
2019-06-01T14:45:01.249Z,96.10
2019-06-01T14:47:31.760Z,96.70
2019-06-01T14:50:02.706Z,97.60
2019-06-01T14:52:35.255Z,96.80
2019-06-01T14:55:06.776Z,95.70
2019-06-01T14:57:37.585Z,96.50
2019-06-01T15:00:09.496Z,96.50
2019-06-01T15:02:40.110Z,95.70
2019-06-01T15:05:11.571Z,96.40
2019-06-01T15:07:42.109Z,96.90
2019-06-01T15:10:14.703Z,95.10
2019-06-01T15:12:45.576Z,96.70
2019-06-01T15:15:16.621Z,96.80
2019-06-01T15:17:47.170Z,97.00
2019-06-01T15:20:18.681Z,95.90
2019-06-01T15:22:50.077Z,95.40
2019-06-01T15:25:20.732Z,96.40
2019-06-01T15:27:52.602Z,94.90
2019-06-01T15:30:23.654Z,94.30
2019-06-01T15:32:54.199Z,94.90
2019-06-01T15:35:25.240Z,96.10
2019-06-01T15:37:58.953Z,97.00
2019-06-01T15:40:28.447Z,97.00
2019-06-01T15:42:59.486Z,96.00
2019-06-01T15:45:30.168Z,95.60
2019-06-01T15:48:02.267Z,95.90
2019-06-01T15:50:33.082Z,96.50
2019-06-01T15:53:03.652Z,95.90
2019-06-01T15:55:34.206Z,95.60
2019-06-01T15:58:05.138Z,95.20
2019-06-01T16:00:36.031Z,96.00
2019-06-01T16:03:07.217Z,96.30
2019-06-01T16:05:37.789Z,96.70
2019-06-01T16:08:08.443Z,95.40
2019-06-01T16:10:38.982Z,95.20
2019-06-01T16:13:09.572Z,95.20
2019-06-01T16:15:40.414Z,95.60
2019-06-01T16:18:11.069Z,96.40
2019-06-01T16:20:42.042Z,95.90
2019-06-01T16:23:12.627Z,95.80
2019-06-01T16:25:43.526Z,95.30
2019-06-01T16:28:14.428Z,96.00
2019-06-01T16:30:45.031Z,96.20
2019-06-01T16:33:15.563Z,97.80
2019-06-01T16:35:46.190Z,95.00
2019-06-01T16:38:16.735Z,95.10
2019-06-01T16:40:47.346Z,95.40
2019-06-01T16:43:18.289Z,95.40
2019-06-01T16:45:48.843Z,94.90
2019-06-01T16:48:19.778Z,94.40
2019-06-01T16:50:50.320Z,93.80
2019-06-01T16:53:21.791Z,93.00
2019-06-01T16:55:53.341Z,93.30
2019-06-01T16:58:24.182Z,93.20
2019-06-01T17:00:56.341Z,93.40
2019-06-01T17:03:27.059Z,94.30
2019-06-01T17:05:58.614Z,94.40
2019-06-01T17:08:29.376Z,94.70
2019-06-01T17:11:00.690Z,93.10
2019-06-01T17:13:31.810Z,94.00
2019-06-01T17:16:03.012Z,93.60
2019-06-01T17:18:33.943Z,93.60
2019-06-01T17:21:05.564Z,93.20
2019-06-01T17:23:36.243Z,93.60
2019-06-01T17:26:08.846Z,92.50
2019-06-01T17:28:39.487Z,92.50
2019-06-01T17:31:11.113Z,93.40
2019-06-01T17:33:42.323Z,93.10
2019-06-01T17:36:13.229Z,94.80
2019-06-01T17:38:44.635Z,93.90
2019-06-01T17:41:15.886Z,94.40
2019-06-01T17:43:47.159Z,93.00
2019-06-01T17:46:17.865Z,94.60
2019-06-01T17:48:49.005Z,94.80
2019-06-01T17:51:20.258Z,94.70
2019-06-01T17:53:53.393Z,95.10
2019-06-01T17:56:23.763Z,96.50
2019-06-01T17:58:55.168Z,97.10
2019-06-01T18:01:26.488Z,97.50
2019-06-01T18:03:57.506Z,98.10
2019-06-01T18:06:28.339Z,98.00
2019-06-01T18:08:58.874Z,99.10
2019-06-01T18:11:29.783Z,99.50
2019-06-01T18:14:00.412Z,99.90
2019-06-01T18:16:31.317Z,99.90
2019-06-01T18:19:02.172Z,99.90
2019-06-01T18:21:33.543Z,99.90
2019-06-01T18:24:06.244Z,99.90
2019-06-01T18:26:37.265Z,99.90
2019-06-01T18:29:08.623Z,99.90
2019-06-01T18:31:39.674Z,99.90
2019-06-01T18:34:10.270Z,99.90
2019-06-01T18:36:40.819Z,99.90
2019-06-01T18:39:11.748Z,99.90
2019-06-01T18:41:42.409Z,99.90
2019-06-01T18:44:14.033Z,99.90
2019-06-01T18:46:45.106Z,99.90
2019-06-01T18:49:18.135Z,99.90
2019-06-01T18:51:48.627Z,99.90
2019-06-01T18:54:19.840Z,99.90
2019-06-01T18:56:50.443Z,99.90
2019-06-01T18:59:23.692Z,99.90
2019-06-01T19:01:53.963Z,99.90
2019-06-01T19:04:25.397Z,99.90
2019-06-01T19:06:56.132Z,99.90
2019-06-01T19:09:26.674Z,99.90
2019-06-01T19:11:57.946Z,99.90
2019-06-01T19:14:28.841Z,99.90
2019-06-01T19:16:59.792Z,99.90
2019-06-01T19:19:30.672Z,99.90
2019-06-01T19:22:01.302Z,99.90
2019-06-01T19:24:32.248Z,99.90
2019-06-01T19:27:03.252Z,99.90
2019-06-01T19:29:34.944Z,99.90
2019-06-01T19:32:06.761Z,99.90
2019-06-01T19:34:37.614Z,99.90
2019-06-01T19:37:09.042Z,99.90
2019-06-01T19:39:40.350Z,99.90
2019-06-01T19:42:13.306Z,99.90
2019-06-01T19:44:44.281Z,99.90
2019-06-01T19:47:15.958Z,99.90
2019-06-01T19:49:47.011Z,99.90
2019-06-01T19:52:19.016Z,99.90
2019-06-01T19:54:49.659Z,99.90
2019-06-01T19:57:22.652Z,99.90
2019-06-01T19:59:52.996Z,99.90
2019-06-01T20:02:33.383Z,99.90
2019-06-01T20:04:57.213Z,99.90
2019-06-01T20:07:28.303Z,99.90
2019-06-01T20:09:58.831Z,99.90
2019-06-01T20:12:29.648Z,99.90
2019-06-01T20:15:01.250Z,99.90
2019-06-01T20:17:31.854Z,99.90
2019-06-01T20:20:03.257Z,99.90
2019-06-01T20:22:34.640Z,99.90
2019-06-01T20:25:05.812Z,99.90
2019-06-01T20:27:36.837Z,99.90
2019-06-01T20:30:08.351Z,99.90
2019-06-01T20:32:39.150Z,99.90
2019-06-01T20:35:10.119Z,99.90
2019-06-01T20:37:40.875Z,99.90
2019-06-01T20:40:12.213Z,99.90
2019-06-01T20:42:43.358Z,99.90
2019-06-01T20:45:14.687Z,99.90
2019-06-01T20:47:46.151Z,99.90
2019-06-01T20:50:18.658Z,99.90
2019-06-01T20:52:49.754Z,99.90
2019-06-01T20:55:21.213Z,99.90
2019-06-01T20:57:51.942Z,99.90
2019-06-01T21:00:23.782Z,99.90
2019-06-01T21:02:55.256Z,99.90
2019-06-01T21:05:26.109Z,99.90
2019-06-01T21:07:57.801Z,99.90
2019-06-01T21:10:29.192Z,99.90
2019-06-01T21:13:00.225Z,99.90
2019-06-01T21:15:31.173Z,99.90
2019-06-01T21:18:02.207Z,99.90
2019-06-01T21:20:33.222Z,99.90
2019-06-01T21:23:03.979Z,99.90
2019-06-01T21:25:35.100Z,99.90
2019-06-01T21:28:05.623Z,99.90
2019-06-01T21:30:36.260Z,99.90
2019-06-01T21:33:07.252Z,99.90
2019-06-01T21:35:37.827Z,99.90
2019-06-01T21:38:08.457Z,99.90
2019-06-01T21:40:39.632Z,99.90
2019-06-01T21:43:23.640Z,99.90
2019-06-01T21:45:43.096Z,99.90
2019-06-01T21:48:15.503Z,99.90
2019-06-01T21:50:46.812Z,99.90
2019-06-01T21:53:17.971Z,99.90
2019-06-01T21:55:49.270Z,99.90
2019-06-01T21:58:21.084Z,99.90
2019-06-01T22:00:52.493Z,99.90
2019-06-01T22:03:23.270Z,99.90
2019-06-01T22:05:54.484Z,99.90
2019-06-01T22:08:25.423Z,99.90
2019-06-01T22:10:56.175Z,99.90
2019-06-01T22:13:28.761Z,99.90
2019-06-01T22:15:59.926Z,99.90
2019-06-01T22:18:30.908Z,99.90
2019-06-01T22:21:02.237Z,99.90
2019-06-01T22:23:33.121Z,99.90
2019-06-01T22:26:04.162Z,99.90
2019-06-01T22:28:34.803Z,99.90
2019-06-01T22:31:05.629Z,99.90
2019-06-01T22:33:36.671Z,99.90
2019-06-01T22:36:07.430Z,99.90
2019-06-01T22:38:38.662Z,99.90
2019-06-01T22:41:09.580Z,99.90
2019-06-01T22:43:46.589Z,99.90
2019-06-01T22:46:12.892Z,99.90
2019-06-01T22:48:43.848Z,99.90
2019-06-01T22:51:15.799Z,99.90
2019-06-01T22:53:46.449Z,99.90
2019-06-01T22:56:17.362Z,99.90
2019-06-01T22:58:47.996Z,99.90
2019-06-01T23:01:18.941Z,99.90
2019-06-01T23:03:50.053Z,99.90
2019-06-01T23:06:20.946Z,99.90
2019-06-01T23:08:51.731Z,99.90
2019-06-01T23:11:23.203Z,99.90
2019-06-01T23:13:54.340Z,99.90
2019-06-01T23:16:25.625Z,99.90
2019-06-01T23:18:56.334Z,99.90
2019-06-01T23:21:27.850Z,99.90
2019-06-01T23:23:58.541Z,99.90
2019-06-01T23:26:30.299Z,99.90
2019-06-01T23:29:01.022Z,99.90
2019-06-01T23:31:32.628Z,99.90
2019-06-01T23:34:03.325Z,99.90
2019-06-01T23:36:34.588Z,99.90
2019-06-01T23:39:07.312Z,99.90
2019-06-01T23:41:38.221Z,99.90
2019-06-01T23:44:12.171Z,99.90
2019-06-01T23:46:41.627Z,99.90
2019-06-01T23:49:12.205Z,99.90
2019-06-01T23:51:43.093Z,99.90
2019-06-01T23:54:14.031Z,99.90
2019-06-01T23:56:44.629Z,99.90
2019-06-01T23:59:15.497Z,99.90
